Time,TemperatureF,DewpointF,PressureIn,WindDirection,WindDirectionDegrees,WindSpeedMPH,WindSpeedGustMPH,Humidity,HourlyPrecipIn,Conditions,Clouds,dailyrainin,SoftwareType,DateUTC
2013-03-03 00:05:00,21.6,16.0,29.86,West,262,2.0,7.0,79,0.00,,,0.00,weatherlink.com 1.10,2013-03-03 05:05:00,
2013-03-03 00:20:00,21.5,16.0,29.85,NW,309,2.0,12.0,80,0.00,,,0.00,weatherlink.com 1.10,2013-03-03 05:20:00,
2013-03-03 00:35:00,21.4,16.0,29.85,SSW,211,3.0,8.0,81,0.00,,,0.00,weatherlink.com 1.10,2013-03-03 05:35:00,
2013-03-03 00:50:00,21.4,16.0,29.85,SSW,198,4.0,6.0,81,0.00,,,0.00,weatherlink.com 1.10,2013-03-03 05:50:00,
2013-03-03 01:05:00,21.3,17.0,29.85,West,276,1.0,8.0,82,0.00,,,0.00,weatherlink.com 1.10,2013-03-03 06:05:00,
2013-03-03 01:20:00,21.3,17.0,29.86,West,260,4.0,9.0,83,0.00,,,0.00,weatherlink.com 1.10,2013-03-03 06:20:00,
2013-03-03 01:35:00,20.8,16.0,29.86,SW,228,0.0,7.0,83,0.00,,,0.00,weatherlink.com 1.10,2013-03-03 06:35:00,
2013-03-03 01:50:00,20.5,16.0,29.85,WNW,289,4.0,11.0,83,0.00,,,0.00,weatherlink.com 1.10,2013-03-03 06:50:00,
2013-03-03 02:05:00,20.3,16.0,29.86,SE,132,2.0,10.0,82,0.00,,,0.00,weatherlink.com 1.10,2013-03-03 07:05:00,
2013-03-03 02:20:00,20.0,15.0,29.85,South,179,0.0,5.0,82,0.00,,,0.00,weatherlink.com 1.10,2013-03-03 07:20:00,
2013-03-03 02:35:00,19.7,15.0,29.85,WSW,253,1.0,6.0,83,0.00,,,0.00,weatherlink.com 1.10,2013-03-03 07:35:00,
2013-03-03 02:51:00,19.7,15.0,29.84,WNW,302,3.0,7.0,82,0.00,,,0.00,weatherlink.com 1.10,2013-03-03 07:51:00,
2013-03-03 03:05:00,19.6,15.0,29.84,WSW,248,2.0,8.0,82,0.00,,,0.00,weatherlink.com 1.10,2013-03-03 08:05:00,
2013-03-03 03:21:00,19.4,15.0,29.84,SW,224,1.0,7.0,82,0.00,,,0.00,weatherlink.com 1.10,2013-03-03 08:21:00,
2013-03-03 03:36:00,19.5,15.0,29.83,NNW,333,2.0,6.0,81,0.00,,,0.00,weatherlink.com 1.10,2013-03-03 08:36:00,
2013-03-03 03:51:00,19.4,15.0,29.83,WSW,257,1.0,6.0,81,0.00,,,0.00,weatherlink.com 1.10,2013-03-03 08:51:00,
2013-03-03 04:06:00,19.4,15.0,29.84,West,273,2.0,7.0,82,0.00,,,0.00,weatherlink.com 1.10,2013-03-03 09:06:00,
2013-03-03 04:21:00,19.4,15.0,29.84,WSW,238,4.0,6.0,81,0.00,,,0.00,weatherlink.com 1.10,2013-03-03 09:21:00,
2013-03-03 04:36:00,19.2,14.0,29.84,SW,235,0.0,5.0,81,0.00,,,0.00,weatherlink.com 1.10,2013-03-03 09:36:00,
2013-03-03 04:51:00,19.0,14.0,29.84,SW,224,2.0,5.0,81,0.00,,,0.00,weatherlink.com 1.10,2013-03-03 09:51:00,
2013-03-03 05:06:00,18.7,14.0,29.84,South,191,2.0,4.0,82,0.00,,,0.00,weatherlink.com 1.10,2013-03-03 10:06:00,
2013-03-03 05:21:00,18.6,14.0,29.84,South,187,2.0,4.0,82,0.00,,,0.00,weatherlink.com 1.10,2013-03-03 10:21:00,
2013-03-03 05:36:00,19.0,14.0,29.84,SW,226,3.0,6.0,82,0.00,,,0.00,weatherlink.com 1.10,2013-03-03 10:36:00,
2013-03-03 05:51:00,19.2,14.0,29.85,SW,228,5.0,5.0,81,0.00,,,0.00,weatherlink.com 1.10,2013-03-03 10:51:00,
2013-03-03 06:06:00,19.5,14.0,29.85,WSW,256,2.0,6.0,80,0.00,,,0.00,weatherlink.com 1.10,2013-03-03 11:06:00,
2013-03-03 06:21:00,19.7,15.0,29.85,WSW,238,4.0,6.0,80,0.00,,,0.00,weatherlink.com 1.10,2013-03-03 11:21:00,
2013-03-03 06:37:00,19.8,15.0,29.85,WSW,241,3.0,7.0,80,0.00,,,0.00,weatherlink.com 1.10,2013-03-03 11:37:00,
2013-03-03 06:51:00,19.8,15.0,29.86,SSW,210,1.0,5.0,81,0.00,,,0.00,weatherlink.com 1.10,2013-03-03 11:51:00,
2013-03-03 07:06:00,20.0,15.0,29.86,SSW,201,2.0,7.0,81,0.00,,,0.00,weatherlink.com 1.10,2013-03-03 12:06:00,
2013-03-03 07:21:00,20.3,15.0,29.87,West,280,2.0,5.0,80,0.00,,,0.00,weatherlink.com 1.10,2013-03-03 12:21:00,
2013-03-03 07:36:00,20.4,15.0,29.87,SSW,204,0.0,7.0,79,0.00,,,0.00,weatherlink.com 1.10,2013-03-03 12:36:00,
2013-03-03 07:51:00,20.7,15.0,29.87,WSW,238,1.0,4.0,78,0.00,,,0.00,weatherlink.com 1.10,2013-03-03 12:51:00,
2013-03-03 08:06:00,21.0,15.0,29.87,WNW,297,2.0,7.0,77,0.00,,,0.00,weatherlink.com 1.10,2013-03-03 13:06:00,
2013-03-03 08:21:00,21.1,15.0,29.88,West,274,1.0,8.0,77,0.00,,,0.00,weatherlink.com 1.10,2013-03-03 13:21:00,
2013-03-03 08:36:00,21.5,15.0,29.88,WNW,300,7.0,7.0,76,0.00,,,0.00,weatherlink.com 1.10,2013-03-03 13:36:00,
2013-03-03 08:51:00,22.1,16.0,29.87,WSW,238,2.0,7.0,76,0.00,,,0.00,weatherlink.com 1.10,2013-03-03 13:51:00,
2013-03-03 09:06:00,22.4,16.0,29.87,WSW,257,3.0,9.0,76,0.00,,,0.00,weatherlink.com 1.10,2013-03-03 14:06:00,
2013-03-03 09:22:00,23.1,16.0,29.87,WNW,297,7.0,11.0,75,0.00,,,0.00,weatherlink.com 1.10,2013-03-03 14:22:00,
2013-03-03 09:37:00,22.8,16.0,29.87,West,275,6.0,8.0,74,0.00,,,0.00,weatherlink.com 1.10,2013-03-03 14:37:00,
2013-03-03 09:52:00,23.0,16.0,29.87,West,263,10.0,12.0,75,0.00,,,0.00,weatherlink.com 1.10,2013-03-03 14:52:00,
2013-03-03 10:07:00,23.3,17.0,29.87,South,174,1.0,6.0,75,0.00,,,0.00,weatherlink.com 1.10,2013-03-03 15:07:00,
2013-03-03 10:22:00,23.3,17.0,29.87,SSW,204,3.0,6.0,75,0.00,,,0.00,weatherlink.com 1.10,2013-03-03 15:22:00,
2013-03-03 10:37:00,23.7,16.0,29.87,WSW,243,3.0,7.0,73,0.00,,,0.00,weatherlink.com 1.10,2013-03-03 15:37:00,
2013-03-03 10:52:00,23.9,16.0,29.87,SW,228,1.0,5.0,72,0.00,,,0.00,weatherlink.com 1.10,2013-03-03 15:52:00,
2013-03-03 11:07:00,24.5,17.0,29.87,SW,224,7.0,7.0,72,0.00,,,0.00,weatherlink.com 1.10,2013-03-03 16:07:00,
2013-03-03 11:24:00,24.4,17.0,29.87,WSW,257,4.0,6.0,72,0.00,,,0.00,weatherlink.com 1.10,2013-03-03 16:24:00,
2013-03-03 11:37:00,24.4,17.0,29.87,WNW,302,2.0,8.0,72,0.00,,,0.00,weatherlink.com 1.10,2013-03-03 16:37:00,
2013-03-03 11:52:00,24.7,17.0,29.87,WNW,289,3.0,6.0,71,0.00,,,0.00,weatherlink.com 1.10,2013-03-03 16:52:00,
2013-03-03 12:07:00,25.6,17.0,29.87,WNW,293,2.0,5.0,70,0.00,,,0.00,weatherlink.com 1.10,2013-03-03 17:07:00,
2013-03-03 12:22:00,26.9,18.0,29.86,NNE,27,0.0,6.0,69,0.00,,,0.00,weatherlink.com 1.10,2013-03-03 17:22:00,
2013-03-03 12:37:00,27.9,18.0,29.85,SSW,204,2.0,12.0,66,0.00,,,0.00,weatherlink.com 1.10,2013-03-03 17:37:00,
2013-03-03 12:52:00,28.1,17.0,29.84,West,276,2.0,9.0,64,0.00,,,0.00,weatherlink.com 1.10,2013-03-03 17:52:00,
2013-03-03 13:08:00,29.6,18.0,29.84,NW,314,3.0,8.0,62,0.00,,,0.00,weatherlink.com 1.10,2013-03-03 18:08:00,
2013-03-03 13:23:00,28.7,17.0,29.83,SW,228,2.0,8.0,63,0.00,,,0.00,weatherlink.com 1.10,2013-03-03 18:23:00,
2013-03-03 13:38:00,29.5,17.0,29.83,North,9,9.0,11.0,61,0.00,,,0.00,weatherlink.com 1.10,2013-03-03 18:38:00,
2013-03-03 13:53:00,31.1,19.0,29.82,WSW,249,6.0,11.0,60,0.00,,,0.00,weatherlink.com 1.10,2013-03-03 18:53:00,
2013-03-03 14:07:00,30.1,17.0,29.83,West,280,5.0,8.0,59,0.00,,,0.00,weatherlink.com 1.10,2013-03-03 19:07:00,
2013-03-03 14:24:00,29.3,16.0,29.82,SW,235,1.0,9.0,58,0.00,,,0.00,weatherlink.com 1.10,2013-03-03 19:24:00,
2013-03-03 14:39:00,30.6,17.0,29.82,NW,314,1.0,13.0,58,0.00,,,0.00,weatherlink.com 1.10,2013-03-03 19:39:00,
2013-03-03 14:54:00,30.1,17.0,29.82,SE,144,1.0,9.0,58,0.00,,,0.00,weatherlink.com 1.10,2013-03-03 19:54:00,
2013-03-03 15:09:00,29.0,16.0,29.83,NW,321,4.0,7.0,59,0.00,,,0.00,weatherlink.com 1.10,2013-03-03 20:09:00,
2013-03-03 15:24:00,30.1,17.0,29.83,SSW,212,2.0,9.0,59,0.00,,,0.00,weatherlink.com 1.10,2013-03-03 20:24:00,
2013-03-03 15:39:00,31.8,17.0,29.83,WNW,287,3.0,10.0,55,0.00,,,0.00,weatherlink.com 1.10,2013-03-03 20:39:00,
2013-03-03 15:54:00,29.4,17.0,29.83,WNW,297,5.0,8.0,59,0.00,,,0.00,weatherlink.com 1.10,2013-03-03 20:54:00,
2013-03-03 16:09:00,28.6,16.0,29.84,NW,312,5.0,12.0,59,0.00,,,0.00,weatherlink.com 1.10,2013-03-03 21:09:00,
2013-03-03 16:24:00,27.6,16.0,29.83,WSW,255,1.0,10.0,62,0.00,,,0.00,weatherlink.com 1.10,2013-03-03 21:24:00,
2013-03-03 16:41:00,27.2,16.0,29.84,West,280,4.0,9.0,63,0.00,,,0.00,weatherlink.com 1.10,2013-03-03 21:41:00,
2013-03-03 16:54:00,26.4,16.0,29.84,West,271,2.0,7.0,66,0.00,,,0.00,weatherlink.com 1.10,2013-03-03 21:54:00,
2013-03-03 17:09:00,26.0,16.0,29.84,SW,221,8.0,12.0,66,0.00,,,0.00,weatherlink.com 1.10,2013-03-03 22:09:00,
2013-03-03 17:24:00,25.7,16.0,29.85,WSW,243,5.0,8.0,67,0.00,,,0.00,weatherlink.com 1.10,2013-03-03 22:24:00,
2013-03-03 17:39:00,25.1,16.0,29.86,SSW,193,3.0,14.0,67,0.00,,,0.00,weatherlink.com 1.10,2013-03-03 22:39:00,
2013-03-03 17:54:00,24.8,15.0,29.86,NW,307,6.0,11.0,67,0.00,,,0.00,weatherlink.com 1.10,2013-03-03 22:54:00,
2013-03-03 18:09:00,24.2,15.0,29.87,WNW,297,8.0,10.0,68,0.00,,,0.00,weatherlink.com 1.10,2013-03-03 23:09:00,
2013-03-03 18:24:00,23.7,15.0,29.89,WNW,283,2.0,8.0,68,0.00,,,0.00,weatherlink.com 1.10,2013-03-03 23:24:00,
2013-03-03 18:39:00,23.4,14.0,29.89,WSW,238,3.0,9.0,68,0.00,,,0.00,weatherlink.com 1.10,2013-03-03 23:39:00,
2013-03-03 18:54:00,23.2,14.0,29.89,West,269,2.0,7.0,69,0.00,,,0.00,weatherlink.com 1.10,2013-03-03 23:54:00,
2013-03-03 19:09:00,23.2,15.0,29.90,West,271,1.0,8.0,70,0.00,,,0.00,weatherlink.com 1.10,2013-03-04 00:09:00,
2013-03-03 19:24:00,22.7,14.0,29.89,West,279,2.0,8.0,70,0.00,,,0.00,weatherlink.com 1.10,2013-03-04 00:24:00,
2013-03-03 19:40:00,22.5,14.0,29.90,WSW,238,1.0,8.0,71,0.00,,,0.00,weatherlink.com 1.10,2013-03-04 00:40:00,
2013-03-03 19:54:00,22.6,15.0,29.91,SW,231,0.0,6.0,72,0.00,,,0.00,weatherlink.com 1.10,2013-03-04 00:54:00,
2013-03-03 20:09:00,22.8,15.0,29.91,NW,326,1.0,9.0,72,0.00,,,0.00,weatherlink.com 1.10,2013-03-04 01:09:00,
2013-03-03 20:25:00,22.8,15.0,29.92,West,278,2.0,8.0,71,0.00,,,0.00,weatherlink.com 1.10,2013-03-04 01:25:00,
2013-03-03 20:40:00,22.8,15.0,29.92,WSW,238,6.0,9.0,71,0.00,,,0.00,weatherlink.com 1.10,2013-03-04 01:40:00,
2013-03-03 20:55:00,22.7,15.0,29.92,WNW,284,2.0,7.0,71,0.00,,,0.00,weatherlink.com 1.10,2013-03-04 01:55:00,
2013-03-03 21:10:00,22.4,15.0,29.93,West,262,4.0,7.0,72,0.00,,,0.00,weatherlink.com 1.10,2013-03-04 02:10:00,
2013-03-03 21:26:00,22.1,14.0,29.93,NW,309,5.0,6.0,72,0.00,,,0.00,weatherlink.com 1.10,2013-03-04 02:26:00,
2013-03-03 21:40:00,21.9,14.0,29.94,West,277,3.0,7.0,72,0.00,,,0.00,weatherlink.com 1.10,2013-03-04 02:40:00,
2013-03-03 21:55:00,21.7,14.0,29.94,WNW,294,0.0,5.0,72,0.00,,,0.00,weatherlink.com 1.10,2013-03-04 02:55:00,
2013-03-03 22:10:00,21.5,14.0,29.94,West,262,2.0,8.0,72,0.00,,,0.00,weatherlink.com 1.10,2013-03-04 03:10:00,
2013-03-03 22:25:00,21.5,14.0,29.95,ESE,113,1.0,5.0,72,0.00,,,0.00,weatherlink.com 1.10,2013-03-04 03:25:00,
2013-03-03 22:40:00,21.2,13.0,29.95,NNW,338,1.0,6.0,72,0.00,,,0.00,weatherlink.com 1.10,2013-03-04 03:40:00,
2013-03-03 22:55:00,21.1,14.0,29.95,WSW,248,2.0,5.0,73,0.00,,,0.00,weatherlink.com 1.10,2013-03-04 03:55:00,
2013-03-03 23:10:00,20.9,14.0,29.95,WNW,283,3.0,4.0,73,0.00,,,0.00,weatherlink.com 1.10,2013-03-04 04:10:00,
2013-03-03 23:25:00,20.6,14.0,29.96,NW,304,4.0,7.0,74,0.00,,,0.00,weatherlink.com 1.10,2013-03-04 04:25:00,
2013-03-03 23:40:00,20.6,14.0,29.95,NNE,23,1.0,8.0,74,0.00,,,0.00,weatherlink.com 1.10,2013-03-04 04:40:00,
2013-03-03 23:55:00,20.3,13.0,29.95,WSW,253,1.0,9.0,73,0.00,,,0.00,weatherlink.com 1.10,2013-03-04 04:55:00,